Time;durP1;ratioP1;P1;durP2;ratioP2;P2;SDS_P1;SDS_P2;PMS_P1;PMS_P2;Temp;Humidity;BMP_temperature;BMP_pressure;BME280_temperature;BME280_humidity;BME280_pressure;Samples;Min_cycle;Max_cycle;Signal;HPM_P1;HPM_P2
2022/02/20 00:00:27;;;;;;;;;;;;;;;;;;4977454;28;19926;-68
2022/02/20 00:02:54;;;;;;;;;;;;;;;;;;4972883;28;20378;-67
2022/02/20 00:05:21;;;;;;;;;;;;;;;;;;4969337;28;19933;-67
2022/02/20 00:07:48;;;;;;;;;;;;;;;;;;4980158;28;19930;-68
2022/02/20 00:10:15;;;;;;;;;;;;;;;;;;4974396;28;20279;-67
2022/02/20 00:12:42;;;;;;;;;;;;;;;;;;4962416;28;19926;-66
2022/02/20 00:15:09;;;;;;;;;;;;;;;;;;4976982;28;19926;-67
2022/02/20 00:17:36;;;;;;;;;;;;;;;;;;4972861;28;19937;-65
2022/02/20 00:20:03;;;;;;;;;;;;;;;;;;4979462;28;19932;-66
2022/02/20 00:22:30;;;;;;;;;;;;;;;;;;4976888;28;19957;-67
2022/02/20 00:24:57;;;;;;;;;;;;;;;;;;4972896;28;20014;-67
2022/02/20 00:27:24;;;;;;;;;;;;;;;;;;4968524;28;20384;-66
2022/02/20 00:29:51;;;;;;;;;;;;;;;;;;4968540;28;19933;-66
2022/02/20 00:32:18;;;;;;;;;;;;;;;;;;4966421;28;19926;-67
2022/02/20 00:34:45;;;;;;;;;;;;;;;;;;4971360;28;19938;-67
2022/02/20 00:37:12;;;;;;;;;;;;;;;;;;4968563;28;19926;-68
2022/02/20 00:39:38;;;;;;;;;;;;;;;;;;4969302;28;20015;-68
2022/02/20 00:42:05;;;;;;;;;;;;;;;;;;4966746;28;19949;-66
2022/02/20 00:44:32;;;;;;;;;;;;;;;;;;4974901;28;19926;-67
2022/02/20 00:46:59;;;;;;;;;;;;;;;;;;4974692;28;19926;-65
2022/02/20 00:49:26;;;;;;;;;;;;;;;;;;4980262;28;19929;-66
2022/02/20 00:51:53;;;;;;;;;;;;;;;;;;4967340;28;19926;-67
2022/02/20 00:54:20;;;;;;;;;;;;;;;;;;4966851;28;19926;-67
2022/02/20 00:56:47;;;;;;;;;;;;;;;;;;4976192;28;19934;-67
2022/02/20 00:59:14;;;;;;;;;;;;;;;;;;4977407;28;19932;-67
2022/02/20 01:01:41;;;;;;;;;;;;;;;;;;4972011;28;19933;-69
2022/02/20 01:04:09;;;;;;;;;;;;;;;;;;4964845;28;19926;-65
2022/02/20 01:06:35;;;;;;;;;;;;;;;;;;4968465;28;19926;-66
2022/02/20 01:09:02;;;;;;;;;;;;;;;;;;4967207;28;19926;-66
2022/02/20 01:11:29;;;;;;;;;;;;;;;;;;4971530;28;19933;-67
2022/02/20 01:13:56;;;;;;;;;;;;;;;;;;4969393;28;19937;-66
2022/02/20 01:16:23;;;;;;;;;;;;;;;;;;4969876;28;19937;-67
2022/02/20 01:18:50;;;;;;;;;;;;;;;;;;4972047;28;19926;-65
2022/02/20 01:21:17;;;;;;;;;;;;;;;;;;4971971;28;20401;-66
2022/02/20 01:23:44;;;;;;;;;;;;;;;;;;4972354;28;19930;-67
2022/02/20 01:26:11;;;;;;;;;;;;;;;;;;4967833;28;20314;-67
2022/02/20 01:28:38;;;;;;;;;;;;;;;;;;4968273;28;19926;-67
2022/02/20 01:31:04;;;;;;;;;;;;;;;;;;4969214;28;20022;-67
2022/02/20 01:33:31;;;;;;;;;;;;;;;;;;4971505;28;19941;-68
2022/02/20 01:35:59;;;;;;;;;;;;;;;;;;4970211;28;19933;-67
2022/02/20 01:38:26;;;;;;;;;;;;;;;;;;4969499;28;20282;-66
2022/02/20 01:40:55;;;;;;;;;;;;;;;;;;4970073;28;19945;-66
2022/02/20 01:43:22;;;;;;;;;;;;;;;;;;4970947;28;19960;-67
2022/02/20 01:45:49;;;;;;;;;;;;;;;;;;4971500;28;20386;-67
2022/02/20 01:48:16;;;;;;;;;;;;;;;;;;4971090;28;19933;-67
2022/02/20 01:50:43;;;;;;;;;;;;;;;;;;4967612;28;19937;-67
2022/02/20 01:53:10;;;;;;;;;;;;;;;;;;4969859;28;19981;-66
2022/02/20 01:55:37;;;;;;;;;;;;;;;;;;4968563;28;19942;-67
2022/02/20 01:58:04;;;;;;;;;;;;;;;;;;4970483;28;20005;-67
2022/02/20 02:00:31;;;;;;;;;;;;;;;;;;4971601;28;19933;-66
2022/02/20 02:02:58;;;;;;;;;;;;;;;;;;4965706;28;20025;-67
2022/02/20 02:05:26;;;;;;;;;;;;;;;;;;4969160;28;19932;-68
2022/02/20 02:07:53;;;;;;;;;;;;;;;;;;4969609;28;19970;-67
2022/02/20 02:10:20;;;;;;;;;;;;;;;;;;4971807;28;20303;-67
2022/02/20 02:12:47;;;;;;;;;;;;;;;;;;4968013;28;19944;-67
2022/02/20 02:15:14;;;;;;;;;;;;;;;;;;4964491;28;20484;-67
2022/02/20 02:17:41;;;;;;;;;;;;;;;;;;4969912;28;20025;-67
2022/02/20 02:20:08;;;;;;;;;;;;;;;;;;4967144;28;19932;-68
2022/02/20 02:22:35;;;;;;;;;;;;;;;;;;4967413;28;19927;-66
2022/02/20 02:25:03;;;;;;;;;;;;;;;;;;4966832;28;19926;-68
2022/02/20 02:27:30;;;;;;;;;;;;;;;;;;4968556;28;19933;-67
2022/02/20 02:29:57;;;;;;;;;;;;;;;;;;4969658;28;19938;-67
2022/02/20 02:32:24;;;;;;;;;;;;;;;;;;4969301;28;19933;-68
2022/02/20 02:34:51;;;;;;;;;;;;;;;;;;4969216;28;19926;-67
2022/02/20 02:37:19;;;;;;;;;;;;;;;;;;4968606;28;19926;-66
2022/02/20 02:39:46;;;;;;;;;;;;;;;;;;4969569;28;19981;-66
2022/02/20 02:42:13;;;;;;;;;;;;;;;;;;4968086;28;20271;-67
2022/02/20 02:44:40;;;;;;;;;;;;;;;;;;4969514;28;19989;-67
2022/02/20 02:47:07;;;;;;;;;;;;;;;;;;4967013;28;20402;-67
2022/02/20 02:49:34;;;;;;;;;;;;;;;;;;4969088;28;20405;-67
2022/02/20 02:52:01;;;;;;;;;;;;;;;;;;4967625;28;20318;-66
2022/02/20 02:54:28;;;;;;;;;;;;;;;;;;4969923;28;19932;-66
2022/02/20 02:56:55;;;;;;;;;;;;;;;;;;4971563;28;19948;-67
2022/02/20 02:59:22;;;;;;;;;;;;;;;;;;4970724;28;19933;-66
2022/02/20 03:01:50;;;;;;;;;;;;;;;;;;4967494;28;20001;-68
2022/02/20 03:04:17;;;;;;;;;;;;;;;;;;4966255;28;20037;-68
2022/02/20 03:06:44;;;;;;;;;;;;;;;;;;4971779;28;19955;-67
2022/02/20 03:09:11;;;;;;;;;;;;;;;;;;4970403;28;19926;-68
2022/02/20 03:11:38;;;;;;;;;;;;;;;;;;4969980;28;19926;-67
2022/02/20 03:14:05;;;;;;;;;;;;;;;;;;4972342;28;19941;-67
2022/02/20 03:16:32;;;;;;;;;;;;;;;;;;4972219;28;20313;-67
2022/02/20 03:18:59;;;;;;;;;;;;;;;;;;4968143;28;19926;-67
2022/02/20 03:21:26;;;;;;;;;;;;;;;;;;4973119;28;20523;-67
2022/02/20 03:23:53;;;;;;;;;;;;;;;;;;4972362;28;19933;-67
2022/02/20 03:26:20;;;;;;;;;;;;;;;;;;4967613;28;19937;-67
2022/02/20 03:28:47;;;;;;;;;;;;;;;;;;4971431;28;19941;-68
2022/02/20 03:31:14;;;;;;;;;;;;;;;;;;4972562;28;19926;-67
2022/02/20 03:33:41;;;;;;;;;;;;;;;;;;4972535;28;19926;-65
2022/02/20 03:36:08;;;;;;;;;;;;;;;;;;4968195;28;19926;-67
2022/02/20 03:38:35;;;;;;;;;;;;;;;;;;4974706;28;19932;-67
2022/02/20 03:41:02;;;;;;;;;;;;;;;;;;4972787;28;19998;-67
2022/02/20 03:43:29;;;;;;;;;;;;;;;;;;4969262;28;20385;-67
2022/02/20 03:45:56;;;;;;;;;;;;;;;;;;4972675;28;19926;-66
2022/02/20 03:48:23;;;;;;;;;;;;;;;;;;4971519;28;20009;-66
2022/02/20 03:50:50;;;;;;;;;;;;;;;;;;4968422;28;19926;-67
2022/02/20 03:53:17;;;;;;;;;;;;;;;;;;4972586;28;19930;-65
2022/02/20 03:55:44;;;;;;;;;;;;;;;;;;4974255;28;19965;-67
2022/02/20 03:58:11;;;;;;;;;;;;;;;;;;4964538;28;20029;-67
2022/02/20 04:00:38;;;;;;;;;;;;;;;;;;4966910;28;19934;-67
2022/02/20 04:03:05;;;;;;;;;;;;;;;;;;4966964;28;19934;-67
2022/02/20 04:05:32;;;;;;;;;;;;;;;;;;4972454;28;19937;-67
2022/02/20 04:07:59;;;;;;;;;;;;;;;;;;4970863;28;20646;-67
2022/02/20 04:10:26;;;;;;;;;;;;;;;;;;4968822;28;19957;-67
2022/02/20 04:12:54;;;;;;;;;;;;;;;;;;4971575;28;19930;-67
2022/02/20 04:15:21;;;;;;;;;;;;;;;;;;4974472;28;19972;-66
2022/02/20 04:17:48;;;;;;;;;;;;;;;;;;4966270;28;19930;-67
2022/02/20 04:20:15;;;;;;;;;;;;;;;;;;4967146;28;19938;-67
2022/02/20 04:22:42;;;;;;;;;;;;;;;;;;4978236;28;20298;-67
2022/02/20 04:25:09;;;;;;;;;;;;;;;;;;4967851;28;20378;-67
2022/02/20 04:27:36;;;;;;;;;;;;;;;;;;4970748;28;20583;-67
2022/02/20 04:30:03;;;;;;;;;;;;;;;;;;4969876;28;20650;-67
2022/02/20 04:32:30;;;;;;;;;;;;;;;;;;4979321;28;20021;-67
2022/02/20 04:34:57;;;;;;;;;;;;;;;;;;4970703;28;19926;-67
2022/02/20 04:37:24;;;;;;;;;;;;;;;;;;4973716;28;19934;-66
2022/02/20 04:39:51;;;;;;;;;;;;;;;;;;4974170;28;19927;-67
2022/02/20 04:42:18;;;;;;;;;;;;;;;;;;4974629;28;20408;-67
2022/02/20 04:44:45;;;;;;;;;;;;;;;;;;4961000;28;19926;-67
2022/02/20 04:47:12;;;;;;;;;;;;;;;;;;4973213;28;19949;-67
2022/02/20 04:49:39;;;;;;;;;;;;;;;;;;4971870;28;19934;-67
2022/02/20 04:52:06;;;;;;;;;;;;;;;;;;4966477;28;19926;-68
2022/02/20 04:54:33;;;;;;;;;;;;;;;;;;4966743;28;19932;-66
2022/02/20 04:57:00;;;;;;;;;;;;;;;;;;4964441;28;20317;-67
2022/02/20 04:59:27;;;;;;;;;;;;;;;;;;4969825;28;19926;-67
2022/02/20 05:01:54;;;;;;;;;;;;;;;;;;4970069;28;20418;-67
2022/02/20 05:04:20;;;;;;;;;;;;;;;;;;4972521;28;19930;-66
2022/02/20 05:06:47;;;;;;;;;;;;;;;;;;4966019;28;19941;-67
2022/02/20 05:09:14;;;;;;;;;;;;;;;;;;4972125;28;19926;-67
2022/02/20 05:11:41;;;;;;;;;;;;;;;;;;4970852;28;19941;-67
2022/02/20 05:14:08;;;;;;;;;;;;;;;;;;4974652;28;20389;-67
2022/02/20 05:16:35;;;;;;;;;;;;;;;;;;4968512;28;19933;-67
2022/02/20 05:19:02;;;;;;;;;;;;;;;;;;4971538;28;19934;-66
2022/02/20 05:21:29;;;;;;;;;;;;;;;;;;4975016;28;19932;-66
2022/02/20 05:23:56;;;;;;;;;;;;;;;;;;4970165;28;19952;-66
2022/02/20 05:26:23;;;;;;;;;;;;;;;;;;4971892;28;19965;-67
2022/02/20 05:28:50;;;;;;;;;;;;;;;;;;4977121;28;19934;-67
2022/02/20 05:31:17;;;;;;;;;;;;;;;;;;4971278;28;19926;-67
2022/02/20 05:33:44;;;;;;;;;;;;;;;;;;4973456;28;19933;-67
2022/02/20 05:36:11;;;;;;;;;;;;;;;;;;4972369;28;19933;-66
2022/02/20 05:38:38;;;;;;;;;;;;;;;;;;4975630;28;19930;-67
2022/02/20 05:41:05;;;;;;;;;;;;;;;;;;4971964;28;20300;-68
2022/02/20 05:43:31;;;;;;;;;;;;;;;;;;4970847;28;19933;-67
2022/02/20 05:45:58;;;;;;;;;;;;;;;;;;4968132;28;20013;-67
2022/02/20 05:48:25;;;;;;;;;;;;;;;;;;4978926;28;19933;-68
2022/02/20 05:50:53;;;;;;;;;;;;;;;;;;4979946;28;20016;-67
2022/02/20 05:53:20;;;;;;;;;;;;;;;;;;4970060;28;19930;-67
2022/02/20 05:55:47;;;;;;;;;;;;;;;;;;4968346;28;20329;-67
2022/02/20 05:58:14;;;;;;;;;;;;;;;;;;4970502;28;19933;-66
2022/02/20 06:00:40;;;;;;;;;;;;;;;;;;4970138;28;19926;-68
2022/02/20 06:03:07;;;;;;;;;;;;;;;;;;4963884;28;19930;-68
2022/02/20 06:05:34;;;;;;;;;;;;;;;;;;4962775;28;19926;-68
2022/02/20 06:08:01;;;;;;;;;;;;;;;;;;4968115;28;19926;-67
2022/02/20 06:10:28;;;;;;;;;;;;;;;;;;4969206;28;19933;-67
2022/02/20 06:12:55;;;;;;;;;;;;;;;;;;4969883;28;19933;-68
2022/02/20 06:15:22;;;;;;;;;;;;;;;;;;4970572;28;19930;-67
2022/02/20 06:17:49;;;;;;;;;;;;;;;;;;4971517;28;19927;-67
2022/02/20 06:20:16;;;;;;;;;;;;;;;;;;4966146;28;19926;-67
2022/02/20 06:22:43;;;;;;;;;;;;;;;;;;4969097;28;19933;-67
2022/02/20 06:25:10;;;;;;;;;;;;;;;;;;4963511;28;19934;-67
2022/02/20 06:27:37;;;;;;;;;;;;;;;;;;4970036;28;19926;-67
2022/02/20 06:30:04;;;;;;;;;;;;;;;;;;4969040;28;19926;-68
2022/02/20 06:32:31;;;;;;;;;;;;;;;;;;4970760;28;19934;-66
2022/02/20 06:34:58;;;;;;;;;;;;;;;;;;4971491;28;19936;-67
2022/02/20 06:37:24;;;;;;;;;;;;;;;;;;4969927;28;19938;-67
2022/02/20 06:39:51;;;;;;;;;;;;;;;;;;4966818;28;20008;-68
2022/02/20 06:42:19;;;;;;;;;;;;;;;;;;4970581;28;19930;-66
2022/02/20 06:44:45;;;;;;;;;;;;;;;;;;4962020;28;19972;-66
2022/02/20 06:47:12;;;;;;;;;;;;;;;;;;4970759;28;20021;-67
2022/02/20 06:49:39;;;;;;;;;;;;;;;;;;4970359;28;19930;-67
2022/02/20 06:52:06;;;;;;;;;;;;;;;;;;4970510;28;20337;-66
2022/02/20 06:54:33;;;;;;;;;;;;;;;;;;4966605;28;19926;-66
2022/02/20 06:57:00;;;;;;;;;;;;;;;;;;4970323;28;19926;-67
2022/02/20 06:59:27;;;;;;;;;;;;;;;;;;4970326;28;19933;-67
2022/02/20 07:01:54;;;;;;;;;;;;;;;;;;4963899;28;19934;-66
2022/02/20 07:04:21;;;;;;;;;;;;;;;;;;4967682;28;19926;-67
2022/02/20 07:06:48;;;;;;;;;;;;;;;;;;4970085;28;20466;-67
2022/02/20 07:09:15;;;;;;;;;;;;;;;;;;4965649;28;19926;-67
2022/02/20 07:11:42;;;;;;;;;;;;;;;;;;4964506;28;20373;-68
2022/02/20 07:14:09;;;;;;;;;;;;;;;;;;4965069;28;19926;-67
2022/02/20 07:16:36;;;;;;;;;;;;;;;;;;4969608;28;19934;-67
2022/02/20 07:19:05;;;;;;;;;;;;;;;;;;4967602;28;19932;-68
2022/02/20 07:21:32;;;;;;;;;;;;;;;;;;4970157;28;19965;-67
2022/02/20 07:24:00;;;;;;;;;;;;;;;;;;4968558;28;19930;-67
2022/02/20 07:26:29;;;;;;;;;;;;;;;;;;4971132;28;19926;-68
2022/02/20 07:28:56;;;;;;;;;;;;;;;;;;4965297;28;19926;-66
2022/02/20 07:31:23;;;;;;;;;;;;;;;;;;4969450;28;19926;-67
2022/02/20 07:33:52;;;;;;;;;;;;;;;;;;4969125;28;20021;-67
2022/02/20 07:36:19;;;;;;;;;;;;;;;;;;4970885;28;20283;-67
2022/02/20 07:38:46;;;;;;;;;;;;;;;;;;4962379;28;20011;-68
2022/02/20 07:41:13;;;;;;;;;;;;;;;;;;4971819;28;19926;-68
2022/02/20 07:43:41;;;;;;;;;;;;;;;;;;4966202;28;19926;-67
2022/02/20 07:46:08;;;;;;;;;;;;;;;;;;4967301;28;20393;-67
2022/02/20 07:48:35;;;;;;;;;;;;;;;;;;4968735;28;19935;-69
2022/02/20 07:51:02;;;;;;;;;;;;;;;;;;4971825;28;19933;-68
2022/02/20 07:53:29;;;;;;;;;;;;;;;;;;4964996;28;19926;-68
2022/02/20 07:55:57;;;;;;;;;;;;;;;;;;4970797;28;20349;-67
2022/02/20 07:58:23;;;;;;;;;;;;;;;;;;4966061;28;19926;-66
2022/02/20 08:00:50;;;;;;;;;;;;;;;;;;4975192;28;19933;-66
2022/02/20 08:03:19;;;;;;;;;;;;;;;;;;4971766;28;19927;-66
2022/02/20 08:05:46;;;;;;;;;;;;;;;;;;4974435;28;19933;-66
2022/02/20 08:08:13;;;;;;;;;;;;;;;;;;4970465;28;20303;-67
2022/02/20 08:10:40;;;;;;;;;;;;;;;;;;4974024;28;21315;-66
2022/02/20 08:13:07;;;;;;;;;;;;;;;;;;4972714;28;20378;-66
2022/02/20 08:15:34;;;;;;;;;;;;;;;;;;4972055;28;19934;-66
2022/02/20 08:18:01;;;;;;;;;;;;;;;;;;4971569;28;19926;-67
2022/02/20 08:20:28;;;;;;;;;;;;;;;;;;4971104;28;20009;-67
2022/02/20 08:22:55;;;;;;;;;;;;;;;;;;4973315;28;19934;-66
2022/02/20 08:25:21;;;;;;;;;;;;;;;;;;4971374;28;19926;-67
2022/02/20 08:27:48;;;;;;;;;;;;;;;;;;4972433;28;19957;-67
2022/02/20 08:30:15;;;;;;;;;;;;;;;;;;4970969;28;19970;-66
2022/02/20 08:32:42;;;;;;;;;;;;;;;;;;4970720;28;20513;-69
2022/02/20 08:35:10;;;;;;;;;;;;;;;;;;4973190;28;19930;-69
2022/02/20 08:37:37;;;;;;;;;;;;;;;;;;4973127;28;19930;-70
2022/02/20 08:40:04;;;;;;;;;;;;;;;;;;4972612;28;19933;-69
2022/02/20 08:42:31;;;;;;;;;;;;;;;;;;4971719;28;19930;-68
2022/02/20 08:44:58;;;;;;;;;;;;;;;;;;4973051;28;19936;-67
2022/02/20 08:47:25;;;;;;;;;;;;;;;;;;4972418;28;20021;-68
2022/02/20 08:49:52;;;;;;;;;;;;;;;;;;4970978;28;19934;-68
2022/02/20 08:52:19;;;;;;;;;;;;;;;;;;4973047;28;19930;-67
2022/02/20 08:54:46;;;;;;;;;;;;;;;;;;4969967;28;20421;-69
2022/02/20 08:57:13;;;;;;;;;;;;;;;;;;4964930;28;20306;-67
2022/02/20 08:59:40;;;;;;;;;;;;;;;;;;4965684;28;19926;-68
2022/02/20 09:02:07;;;;;;;;;;;;;;;;;;4972275;28;19934;-68
2022/02/20 09:04:34;;;;;;;;;;;;;;;;;;4971021;28;20009;-68
2022/02/20 09:07:01;;;;;;;;;;;;;;;;;;4971414;28;20032;-68
2022/02/20 09:09:28;;;;;;;;;;;;;;;;;;4972399;28;19926;-68
2022/02/20 09:11:55;;;;;;;;;;;;;;;;;;4961787;28;19926;-68
2022/02/20 09:14:22;;;;;;;;;;;;;;;;;;4964405;28;19949;-69
2022/02/20 09:16:49;;;;;;;;;;;;;;;;;;4970574;28;20313;-69
2022/02/20 09:19:16;;;;;;;;;;;;;;;;;;4969710;28;20398;-67
2022/02/20 09:21:43;;;;;;;;;;;;;;;;;;4972529;28;20013;-68
2022/02/20 09:24:10;;;;;;;;;;;;;;;;;;4970096;28;19997;-69
2022/02/20 09:26:37;;;;;;;;;;;;;;;;;;4973118;28;19930;-69
2022/02/20 09:29:04;;;;;;;;;;;;;;;;;;4972849;28;20297;-68
2022/02/20 09:31:31;;;;;;;;;;;;;;;;;;4967983;28;20309;-68
2022/02/20 09:33:58;;;;;;;;;;;;;;;;;;4970464;28;20016;-69
2022/02/20 09:36:27;;;;;;;;;;;;;;;;;;4971231;28;19926;-68
2022/02/20 09:38:54;;;;;;;;;;;;;;;;;;4972335;28;19977;-68
2022/02/20 09:41:20;;;;;;;;;;;;;;;;;;4967620;28;19926;-69
2022/02/20 09:43:47;;;;;;;;;;;;;;;;;;4971450;28;19941;-69
2022/02/20 09:46:14;;;;;;;;;;;;;;;;;;4970078;28;19926;-68
2022/02/20 09:48:41;;;;;;;;;;;;;;;;;;4969390;28;19936;-68
2022/02/20 09:51:08;;;;;;;;;;;;;;;;;;4972401;28;20306;-69
2022/02/20 09:53:36;;;;;;;;;;;;;;;;;;4963370;28;20013;-69
2022/02/20 09:56:03;;;;;;;;;;;;;;;;;;4966113;28;19926;-68
2022/02/20 09:58:30;;;;;;;;;;;;;;;;;;4959167;28;19931;-69
2022/02/20 10:00:57;;;;;;;;;;;;;;;;;;4968393;28;20404;-71
2022/02/20 10:03:24;;;;;;;;;;;;;;;;;;4969604;28;19944;-68
2022/02/20 10:05:51;;;;;;;;;;;;;;;;;;4971249;28;19932;-68
2022/02/20 10:08:17;;;;;;;;;;;;;;;;;;4969943;28;19930;-67
2022/02/20 10:10:44;;;;;;;;;;;;;;;;;;4967246;28;19926;-67
2022/02/20 10:13:11;;;;;;;;;;;;;;;;;;4972077;28;19930;-67
2022/02/20 10:15:39;;;;;;;;;;;;;;;;;;4967511;28;20297;-69
2022/02/20 10:18:06;;;;;;;;;;;;;;;;;;4973642;28;19985;-69
2022/02/20 10:20:33;;;;;;;;;;;;;;;;;;4972886;28;19926;-70
2022/02/20 10:23:00;;;;;;;;;;;;;;;;;;4964797;28;19929;-68
2022/02/20 10:25:27;;;;;;;;;;;;;;;;;;4968888;28;19942;-68
2022/02/20 10:27:54;;;;;;;;;;;;;;;;;;4973197;28;19930;-67
2022/02/20 10:30:21;;;;;;;;;;;;;;;;;;4968622;28;19926;-67
2022/02/20 10:32:52;;;;;;;;;;;;;;;;;;4974310;28;19926;-69
2022/02/20 10:35:19;;;;;;;;;;;;;;;;;;4973679;28;20316;-69
2022/02/20 10:37:46;;;;;;;;;;;;;;;;;;4967625;28;19937;-70
2022/02/20 10:40:13;;;;;;;;;;;;;;;;;;4968328;28;19989;-70
2022/02/20 10:42:40;;;;;;;;;;;;;;;;;;4961413;28;19935;-69
2022/02/20 10:45:07;;;;;;;;;;;;;;;;;;4966844;28;19933;-70
2022/02/20 10:47:35;;;;;;;;;;;;;;;;;;4964857;28;19933;-69
2022/02/20 10:50:02;;;;;;;;;;;;;;;;;;4975473;28;19961;-68
2022/02/20 10:52:29;;;;;;;;;;;;;;;;;;4962277;28;19930;-69
2022/02/20 10:54:56;;;;;;;;;;;;;;;;;;4968993;28;19926;-67
2022/02/20 10:57:23;;;;;;;;;;;;;;;;;;4971579;28;20374;-69
2022/02/20 10:59:50;;;;;;;;;;;;;;;;;;4967442;28;19945;-67
2022/02/20 11:02:17;;;;;;;;;;;;;;;;;;4962972;28;19969;-67
2022/02/20 11:04:44;;;;;;;;;;;;;;;;;;4965076;28;20016;-67
2022/02/20 11:07:11;;;;;;;;;;;;;;;;;;4970437;28;19978;-68
2022/02/20 11:09:38;;;;;;;;;;;;;;;;;;4964051;28;20017;-67
2022/02/20 11:12:05;;;;;;;;;;;;;;;;;;4960176;28;19941;-68
2022/02/20 11:14:32;;;;;;;;;;;;;;;;;;4960427;28;19935;-69
2022/02/20 11:17:00;;;;;;;;;;;;;;;;;;4971334;28;19936;-69
2022/02/20 11:19:27;;;;;;;;;;;;;;;;;;4964446;28;20091;-66
2022/02/20 11:21:55;;;;;;;;;;;;;;;;;;4968884;28;20001;-66
2022/02/20 11:24:22;;;;;;;;;;;;;;;;;;4973071;28;19933;-67
2022/02/20 11:26:49;;;;;;;;;;;;;;;;;;4969575;28;19935;-68
2022/02/20 11:29:16;;;;;;;;;;;;;;;;;;4971137;28;20342;-67
2022/02/20 11:31:43;;;;;;;;;;;;;;;;;;4972864;28;19931;-70
2022/02/20 11:34:10;;;;;;;;;;;;;;;;;;4962220;28;20345;-68
2022/02/20 11:36:37;;;;;;;;;;;;;;;;;;4965929;28;19926;-67
2022/02/20 11:39:04;;;;;;;;;;;;;;;;;;4976713;28;19926;-68
2022/02/20 11:41:31;;;;;;;;;;;;;;;;;;4980656;28;19926;-68
2022/02/20 11:43:59;;;;;;;;;;;;;;;;;;4976393;28;19942;-68
2022/02/20 11:46:26;;;;;;;;;;;;;;;;;;4977922;28;19934;-67
2022/02/20 11:48:53;;;;;;;;;;;;;;;;;;4978496;28;19957;-68
2022/02/20 11:51:22;;;;;;;;;;;;;;;;;;4978838;28;20084;-68
2022/02/20 11:53:49;;;;;;;;;;;;;;;;;;4969376;28;19926;-67
2022/02/20 11:56:16;;;;;;;;;;;;;;;;;;4975976;28;20473;-67
2022/02/20 11:58:47;;;;;;;;;;;;;;;;;;4969965;28;20318;-66
2022/02/20 12:01:14;;;;;;;;;;;;;;;;;;4977005;28;19927;-66
2022/02/20 12:03:41;;;;;;;;;;;;;;;;;;4974478;28;19981;-67
2022/02/20 12:06:08;;;;;;;;;;;;;;;;;;4970417;28;19926;-68
2022/02/20 12:08:35;;;;;;;;;;;;;;;;;;4972620;28;19926;-69
2022/02/20 12:11:02;;;;;;;;;;;;;;;;;;4971094;28;19930;-68
2022/02/20 12:13:30;;;;;;;;;;;;;;;;;;4976072;28;19937;-68
2022/02/20 12:15:58;;;;;;;;;;;;;;;;;;4970945;28;19930;-69
2022/02/20 12:18:25;;;;;;;;;;;;;;;;;;4977439;28;19934;-69
2022/02/20 12:20:52;;;;;;;;;;;;;;;;;;4973325;28;20012;-68
2022/02/20 12:23:19;;;;;;;;;;;;;;;;;;4968250;28;20012;-69
2022/02/20 12:25:46;;;;;;;;;;;;;;;;;;4957979;28;19932;-68
2022/02/20 12:28:13;;;;;;;;;;;;;;;;;;4971534;28;20342;-69
2022/02/20 12:30:40;;;;;;;;;;;;;;;;;;4968409;28;19992;-68
2022/02/20 12:33:07;;;;;;;;;;;;;;;;;;4969208;28;19926;-69
2022/02/20 12:35:34;;;;;;;;;;;;;;;;;;4974557;28;20325;-69
2022/02/20 12:38:01;;;;;;;;;;;;;;;;;;4970564;28;20048;-69
2022/02/20 12:40:28;;;;;;;;;;;;;;;;;;4979423;28;19932;-69
2022/02/20 12:42:58;;;;;;;;;;;;;;;;;;4972263;28;19926;-69
2022/02/20 12:45:25;;;;;;;;;;;;;;;;;;4975318;28;19926;-68
2022/02/20 12:47:53;;;;;;;;;;;;;;;;;;4980807;28;19965;-69
2022/02/20 12:50:20;;;;;;;;;;;;;;;;;;4977122;28;19996;-68
2022/02/20 12:52:47;;;;;;;;;;;;;;;;;;4970923;28;20534;-69
2022/02/20 12:55:15;;;;;;;;;;;;;;;;;;4966439;28;20017;-69
2022/02/20 12:57:42;;;;;;;;;;;;;;;;;;4981441;28;19930;-68
2022/02/20 13:00:09;;;;;;;;;;;;;;;;;;4978373;28;19925;-69
2022/02/20 13:02:36;;;;;;;;;;;;;;;;;;4973812;28;19926;-69
2022/02/20 13:05:03;;;;;;;;;;;;;;;;;;4972171;28;20029;-68
2022/02/20 13:07:30;;;;;;;;;;;;;;;;;;4971113;28;19937;-69
2022/02/20 13:09:59;;;;;;;;;;;;;;;;;;4974968;28;19949;-69
2022/02/20 13:12:28;;;;;;;;;;;;;;;;;;4961352;28;20013;-69
2022/02/20 13:14:54;;;;;;;;;;;;;;;;;;4975436;28;19932;-68
2022/02/20 13:17:21;;;;;;;;;;;;;;;;;;4977248;28;19973;-69
2022/02/20 13:19:48;;;;;;;;;;;;;;;;;;4979151;28;19932;-69
2022/02/20 13:22:18;;;;;;;;;;;;;;;;;;4970252;28;19954;-68
2022/02/20 13:24:45;;;;;;;;;;;;;;;;;;4980433;28;19941;-68
2022/02/20 13:27:11;;;;;;;;;;;;;;;;;;4977382;28;19926;-69
2022/02/20 13:29:38;;;;;;;;;;;;;;;;;;4970761;28;20298;-67
2022/02/20 13:32:05;;;;;;;;;;;;;;;;;;4974852;28;20378;-69
2022/02/20 13:34:32;;;;;;;;;;;;;;;;;;4966116;28;19932;-68
2022/02/20 13:36:59;;;;;;;;;;;;;;;;;;4977842;28;19929;-68
2022/02/20 13:39:26;;;;;;;;;;;;;;;;;;4979794;28;19926;-69
2022/02/20 13:41:55;;;;;;;;;;;;;;;;;;4968605;28;20309;-67
2022/02/20 13:44:21;;;;;;;;;;;;;;;;;;4975146;28;19993;-67
2022/02/20 13:46:48;;;;;;;;;;;;;;;;;;4973676;28;19926;-68
2022/02/20 13:49:15;;;;;;;;;;;;;;;;;;4973562;28;19937;-69
2022/02/20 13:51:42;;;;;;;;;;;;;;;;;;4975677;28;19926;-68
2022/02/20 13:54:09;;;;;;;;;;;;;;;;;;4973578;28;20314;-67
2022/02/20 13:56:36;;;;;;;;;;;;;;;;;;4972753;28;20013;-68
2022/02/20 13:59:03;;;;;;;;;;;;;;;;;;4976027;28;19929;-69
2022/02/20 14:01:30;;;;;;;;;;;;;;;;;;4972483;28;20333;-68
2022/02/20 14:03:59;;;;;;;;;;;;;;;;;;4975302;28;20124;-68
2022/02/20 14:06:26;;;;;;;;;;;;;;;;;;4978070;28;19951;-68
2022/02/20 14:08:52;;;;;;;;;;;;;;;;;;4968824;28;20024;-69
2022/02/20 14:11:19;;;;;;;;;;;;;;;;;;4976450;28;20386;-68
2022/02/20 14:13:46;;;;;;;;;;;;;;;;;;4973532;28;19930;-68
2022/02/20 14:16:19;;;;;;;;;;;;;;;;;;4966033;28;20016;-69
2022/02/20 14:18:46;;;;;;;;;;;;;;;;;;4974204;28;19933;-69
2022/02/20 14:21:13;;;;;;;;;;;;;;;;;;4968839;28;19932;-66
2022/02/20 14:23:41;;;;;;;;;;;;;;;;;;4966307;28;19937;-68
2022/02/20 14:26:08;;;;;;;;;;;;;;;;;;4968421;28;19926;-72
2022/02/20 14:28:35;;;;;;;;;;;;;;;;;;4966799;28;20293;-69
2022/02/20 14:31:02;;;;;;;;;;;;;;;;;;4974715;28;19932;-69
2022/02/20 14:33:29;;;;;;;;;;;;;;;;;;4972064;28;19926;-69
2022/02/20 14:35:56;;;;;;;;;;;;;;;;;;4968024;28;19969;-70
2022/02/20 14:38:23;;;;;;;;;;;;;;;;;;4971356;28;20095;-69
2022/02/20 14:40:50;;;;;;;;;;;;;;;;;;4969856;28;20202;-68
2022/02/20 14:43:17;;;;;;;;;;;;;;;;;;4977771;28;19993;-69
2022/02/20 14:45:45;;;;;;;;;;;;;;;;;;4970107;28;20412;-69
2022/02/20 14:48:12;;;;;;;;;;;;;;;;;;4963176;28;20025;-69
2022/02/20 14:50:39;;;;;;;;;;;;;;;;;;4972574;28;19926;-69
2022/02/20 14:53:07;;;;;;;;;;;;;;;;;;4971565;28;19993;-70
2022/02/20 14:55:34;;;;;;;;;;;;;;;;;;4970899;28;20008;-69
2022/02/20 14:58:01;;;;;;;;;;;;;;;;;;4973177;28;19930;-71
2022/02/20 15:00:28;;;;;;;;;;;;;;;;;;4972671;28;20266;-68
2022/02/20 15:02:55;;;;;;;;;;;;;;;;;;4977647;28;20309;-69
2022/02/20 15:05:22;;;;;;;;;;;;;;;;;;4969350;28;19948;-69
2022/02/20 15:07:49;;;;;;;;;;;;;;;;;;4971809;28;19934;-68
2022/02/20 15:10:16;;;;;;;;;;;;;;;;;;4976689;28;19962;-70
2022/02/20 15:12:43;;;;;;;;;;;;;;;;;;4966496;28;19981;-70
2022/02/20 15:15:10;;;;;;;;;;;;;;;;;;4967270;28;20025;-72
2022/02/20 15:17:37;;;;;;;;;;;;;;;;;;4972025;28;20021;-70
2022/02/20 15:20:04;;;;;;;;;;;;;;;;;;4960731;28;19937;-71
2022/02/20 15:22:31;;;;;;;;;;;;;;;;;;4977378;28;19945;-69
2022/02/20 15:24:59;;;;;;;;;;;;;;;;;;4960175;28;20033;-69
2022/02/20 15:27:26;;;;;;;;;;;;;;;;;;4975520;28;20345;-70
2022/02/20 15:29:53;;;;;;;;;;;;;;;;;;4974481;28;19978;-69
2022/02/20 15:32:20;;;;;;;;;;;;;;;;;;4971297;28;19930;-70
2022/02/20 15:34:47;;;;;;;;;;;;;;;;;;4974484;28;19935;-70
2022/02/20 15:37:14;;;;;;;;;;;;;;;;;;4970314;28;19981;-69
2022/02/20 15:39:42;;;;;;;;;;;;;;;;;;4973796;28;20407;-77
2022/02/20 15:42:09;;;;;;;;;;;;;;;;;;4958074;28;19930;-70
2022/02/20 15:44:36;;;;;;;;;;;;;;;;;;4963834;28;20377;-70
2022/02/20 15:47:03;;;;;;;;;;;;;;;;;;4959702;28;20012;-70
2022/02/20 15:49:30;;;;;;;;;;;;;;;;;;4970621;28;20439;-70
2022/02/20 15:51:57;;;;;;;;;;;;;;;;;;4961619;28;20051;-70
2022/02/20 15:54:24;;;;;;;;;;;;;;;;;;4966860;28;19926;-71
2022/02/20 15:56:51;;;;;;;;;;;;;;;;;;4970914;28;20377;-68
2022/02/20 15:59:19;;;;;;;;;;;;;;;;;;4962634;28;20562;-69
2022/02/20 16:01:46;;;;;;;;;;;;;;;;;;4969601;28;19933;-70
2022/02/20 16:04:13;;;;;;;;;;;;;;;;;;4966671;28;19933;-69
2022/02/20 16:06:41;;;;;;;;;;;;;;;;;;4973118;28;19933;-70
2022/02/20 16:09:08;;;;;;;;;;;;;;;;;;4967389;28;19970;-68
2022/02/20 16:11:35;;;;;;;;;;;;;;;;;;4973907;28;19926;-70
2022/02/20 16:14:02;;;;;;;;;;;;;;;;;;4977956;28;19933;-70
2022/02/20 16:16:29;;;;;;;;;;;;;;;;;;4959975;28;20013;-70
2022/02/20 16:18:56;;;;;;;;;;;;;;;;;;4966856;28;20481;-70
2022/02/20 16:21:23;;;;;;;;;;;;;;;;;;4967598;28;19988;-69
2022/02/20 16:23:50;;;;;;;;;;;;;;;;;;4972323;28;19934;-69
2022/02/20 16:26:17;;;;;;;;;;;;;;;;;;4974501;28;19933;-72
2022/02/20 16:28:47;;;;;;;;;;;;;;;;;;4968222;28;19932;-69
2022/02/20 16:31:14;;;;;;;;;;;;;;;;;;4974697;28;20413;-70
2022/02/20 16:33:43;;;;;;;;;;;;;;;;;;4973193;28;19970;-69
2022/02/20 16:36:10;;;;;;;;;;;;;;;;;;4954652;28;19962;-71
2022/02/20 16:38:37;;;;;;;;;;;;;;;;;;4961718;28;20037;-71
2022/02/20 16:41:04;;;;;;;;;;;;;;;;;;4960546;28;19930;-72
2022/02/20 16:43:31;;;;;;;;;;;;;;;;;;4958886;28;19929;-69